createdAt,value
2022-10-29T00:01:04.065Z,8.25
2022-10-29T00:03:31.594Z,9.90
2022-10-29T00:06:02.068Z,10.75
2022-10-29T00:08:31.692Z,7.65
2022-10-29T00:11:11.711Z,7.20
2022-10-29T00:13:39.833Z,11.73
2022-10-29T00:16:10.051Z,13.10
2022-10-29T00:18:37.705Z,10.00
2022-10-29T00:21:07.564Z,12.23
2022-10-29T00:23:35.625Z,14.07
2022-10-29T00:26:03.758Z,11.50
2022-10-29T00:28:31.899Z,10.48
2022-10-29T00:31:04.680Z,7.55
2022-10-29T00:33:32.750Z,11.73
2022-10-29T00:36:06.698Z,9.98
2022-10-29T00:38:35.603Z,10.93
2022-10-29T00:41:04.957Z,9.82
2022-10-29T00:43:41.368Z,7.38
2022-10-29T00:46:14.518Z,7.85
2022-10-29T00:48:50.347Z,8.48
2022-10-29T00:51:19.375Z,10.55
2022-10-29T00:53:56.604Z,10.23
2022-10-29T00:56:28.194Z,10.43
2022-10-29T00:58:56.391Z,10.23
2022-10-29T01:01:24.052Z,14.00
2022-10-29T01:03:53.070Z,8.75
2022-10-29T01:06:21.392Z,9.63
2022-10-29T01:08:48.861Z,8.38
2022-10-29T01:11:35.055Z,10.18
2022-10-29T01:14:09.197Z,9.23
2022-10-29T01:16:39.712Z,10.02
2022-10-29T01:19:47.171Z,10.23
2022-10-29T01:22:44.314Z,9.55
2022-10-29T01:25:20.727Z,10.20
2022-10-29T01:27:54.468Z,5.65
2022-10-29T01:30:55.736Z,7.28
2022-10-29T01:33:34.205Z,5.50
2022-10-29T01:36:24.237Z,3.30
2022-10-29T01:39:09.638Z,4.68
2022-10-29T01:42:05.207Z,6.03
2022-10-29T01:44:42.548Z,6.18
2022-10-29T01:47:18.727Z,5.20
2022-10-29T01:49:57.914Z,3.75
2022-10-29T01:52:28.115Z,5.07
2022-10-29T01:54:55.733Z,7.10
2022-10-29T01:57:38.540Z,4.25
2022-10-29T02:03:04.885Z,3.28
2022-10-29T02:05:57.663Z,3.45
2022-10-29T02:08:42.191Z,4.18
2022-10-29T02:11:20.426Z,4.55
2022-10-29T02:13:54.450Z,3.80
2022-10-29T02:16:24.822Z,6.72
2022-10-29T02:18:53.444Z,4.60
2022-10-29T02:21:21.228Z,3.22
2022-10-29T02:23:48.828Z,3.20
2022-10-29T02:26:16.895Z,4.72
2022-10-29T02:28:44.632Z,4.65
2022-10-29T02:31:12.180Z,3.90
2022-10-29T02:33:39.820Z,4.28
2022-10-29T02:36:07.843Z,4.35
2022-10-29T02:38:35.350Z,3.22
2022-10-29T02:41:02.791Z,4.05
2022-10-29T02:43:30.198Z,3.78
2022-10-29T02:46:14.016Z,6.03
2022-10-29T02:48:41.705Z,4.03
2022-10-29T02:51:09.569Z,3.83
2022-10-29T02:53:37.392Z,4.13
2022-10-29T02:56:06.283Z,3.88
2022-10-29T02:58:33.952Z,3.55
2022-10-29T03:01:01.946Z,4.13
2022-10-29T03:03:29.708Z,3.22
2022-10-29T03:05:57.304Z,3.72
2022-10-29T03:08:24.739Z,6.78
2022-10-29T03:10:52.207Z,4.55
2022-10-29T03:13:19.679Z,3.72
2022-10-29T03:15:47.231Z,3.80
2022-10-29T03:18:14.676Z,3.65
2022-10-29T03:20:43.477Z,4.35
2022-10-29T03:23:10.938Z,5.07
2022-10-29T03:25:38.677Z,3.10
2022-10-29T03:28:06.399Z,3.65
2022-10-29T03:30:34.218Z,3.08
2022-10-29T03:33:01.767Z,2.90
2022-10-29T03:35:29.423Z,3.00
2022-10-29T03:37:56.945Z,3.85
2022-10-29T03:40:24.373Z,4.13
2022-10-29T03:42:51.865Z,4.28
2022-10-29T03:45:19.425Z,3.08
2022-10-29T03:47:47.089Z,4.00
2022-10-29T03:50:14.490Z,3.00
2022-10-29T03:52:42.067Z,4.55
2022-10-29T03:55:09.889Z,3.03
2022-10-29T03:57:37.322Z,4.47
2022-10-29T04:00:05.419Z,2.42
2022-10-29T04:02:40.663Z,2.60
2022-10-29T04:05:08.631Z,2.60
2022-10-29T04:07:36.071Z,3.58
2022-10-29T04:10:03.699Z,2.78
2022-10-29T04:12:31.188Z,2.75
2022-10-29T04:14:58.665Z,3.42
2022-10-29T04:17:26.423Z,2.65
2022-10-29T04:19:53.885Z,3.08
2022-10-29T04:30:44.898Z,4.53
2022-10-29T04:33:12.348Z,4.35
2022-10-29T04:35:39.838Z,4.38
2022-10-29T04:38:13.273Z,3.88
2022-10-29T04:40:40.773Z,5.25
2022-10-29T04:43:08.294Z,4.90
2022-10-29T04:45:35.892Z,4.70
2022-10-29T04:48:05.504Z,4.13
2022-10-29T04:50:33.886Z,3.85
2022-10-29T04:53:02.761Z,4.60
2022-10-29T04:55:30.634Z,4.82
2022-10-29T04:57:58.461Z,4.20
2022-10-29T05:00:26.102Z,4.28
2022-10-29T05:02:53.950Z,4.80
2022-10-29T05:05:22.362Z,6.03
2022-10-29T05:07:49.859Z,4.88
2022-10-29T05:10:17.415Z,4.65
2022-10-29T05:12:44.855Z,6.00
2022-10-29T05:15:12.449Z,3.55
2022-10-29T05:17:39.948Z,4.18
2022-10-29T05:20:07.921Z,3.95
2022-10-29T05:22:35.371Z,6.55
2022-10-29T05:25:02.896Z,7.38
2022-10-29T05:27:31.387Z,6.15
2022-10-29T05:29:59.096Z,5.22
2022-10-29T05:32:29.439Z,4.63
2022-10-29T05:34:56.972Z,4.90
2022-10-29T05:37:28.173Z,4.95
2022-10-29T05:39:55.610Z,3.90
2022-10-29T05:42:23.076Z,7.85
2022-10-29T05:44:50.736Z,4.78
2022-10-29T05:47:18.121Z,6.65
2022-10-29T05:49:45.625Z,5.57
2022-10-29T05:52:12.967Z,4.43
2022-10-29T05:54:40.522Z,3.72
2022-10-29T05:57:07.983Z,3.88
2022-10-29T05:59:35.514Z,4.13
2022-10-29T06:02:03.044Z,3.55
2022-10-29T06:04:33.920Z,3.67
2022-10-29T06:07:01.730Z,4.90
2022-10-29T06:09:29.251Z,3.65
2022-10-29T06:11:58.384Z,3.25
2022-10-29T06:14:26.183Z,4.72
2022-10-29T06:16:54.620Z,3.88
2022-10-29T06:19:22.143Z,4.05
2022-10-29T06:21:49.687Z,4.93
2022-10-29T06:24:17.172Z,5.50
2022-10-29T06:26:44.657Z,4.53
2022-10-29T06:29:12.121Z,3.13
2022-10-29T06:31:39.618Z,5.63
2022-10-29T06:34:07.164Z,3.28
2022-10-29T06:36:34.637Z,5.43
2022-10-29T06:39:02.157Z,5.55
2022-10-29T06:41:29.568Z,8.73
2022-10-29T06:43:57.033Z,3.45
2022-10-29T06:46:24.573Z,6.72
2022-10-29T06:48:52.049Z,3.75
2022-10-29T06:51:19.549Z,4.50
2022-10-29T06:53:47.053Z,5.07
2022-10-29T06:56:14.612Z,5.65
2022-10-29T06:58:42.051Z,3.17
2022-10-29T07:01:09.553Z,5.15
2022-10-29T07:03:37.029Z,3.10
2022-10-29T07:06:04.854Z,3.60
2022-10-29T07:08:33.507Z,3.13
2022-10-29T07:11:03.181Z,3.03
2022-10-29T07:13:30.763Z,2.92
2022-10-29T07:15:58.336Z,3.33
2022-10-29T07:18:25.921Z,3.17
2022-10-29T07:20:53.414Z,4.38
2022-10-29T07:23:21.016Z,3.35
2022-10-29T07:25:48.492Z,3.78
2022-10-29T07:28:21.897Z,3.58
2022-10-29T07:30:53.815Z,2.72
2022-10-29T07:33:21.310Z,4.53
2022-10-29T07:35:48.881Z,4.07
2022-10-29T07:38:16.424Z,3.55
2022-10-29T07:40:49.141Z,4.97
2022-10-29T07:43:18.016Z,3.13
2022-10-29T07:45:47.423Z,3.13
2022-10-29T07:48:14.875Z,3.97
2022-10-29T07:50:42.909Z,5.22
2022-10-29T07:53:11.161Z,5.75
2022-10-29T07:55:39.106Z,4.88
2022-10-29T07:58:10.386Z,4.40
2022-10-29T08:00:40.355Z,5.05
2022-10-29T08:03:08.763Z,7.57
2022-10-29T08:05:36.487Z,5.78
2022-10-29T08:08:04.275Z,4.50
2022-10-29T08:10:33.036Z,6.60
2022-10-29T08:13:02.393Z,6.38
2022-10-29T08:15:32.040Z,5.45
2022-10-29T08:18:00.075Z,4.95
2022-10-29T08:20:29.843Z,6.78
2022-10-29T08:23:00.836Z,6.78
2022-10-29T08:25:28.707Z,7.57
2022-10-29T08:28:00.982Z,6.47
2022-10-29T08:30:28.816Z,7.55
2022-10-29T08:32:56.409Z,6.97
2022-10-29T08:35:24.149Z,6.18
2022-10-29T08:37:52.054Z,6.85
2022-10-29T08:40:29.547Z,6.53
2022-10-29T08:43:24.678Z,7.65
2022-10-29T08:45:56.372Z,9.32
2022-10-29T08:48:34.486Z,10.00
2022-10-29T08:51:10.279Z,11.00
2022-10-29T08:53:45.428Z,9.73
2022-10-29T08:56:26.260Z,9.43
2022-10-29T08:58:56.475Z,12.68
2022-10-29T09:01:24.716Z,13.35
2022-10-29T09:03:52.553Z,10.68
2022-10-29T09:06:24.493Z,12.27
2022-10-29T09:09:24.651Z,13.52
2022-10-29T09:12:01.202Z,14.10
2022-10-29T09:15:09.791Z,12.63
2022-10-29T09:17:44.224Z,14.15
2022-10-29T09:20:23.560Z,13.90
2022-10-29T09:23:09.240Z,15.48
2022-10-29T09:25:45.538Z,12.77
2022-10-29T09:28:22.087Z,17.75
2022-10-29T09:31:03.252Z,15.50
2022-10-29T09:33:32.485Z,17.42
2022-10-29T09:36:01.464Z,15.48
2022-10-29T09:38:47.453Z,14.57
2022-10-29T09:41:16.169Z,20.10
2022-10-29T09:43:46.679Z,15.85
2022-10-29T09:46:37.243Z,14.23
2022-10-29T09:49:38.457Z,19.25
2022-10-29T09:52:26.868Z,17.95
2022-10-29T09:54:55.265Z,18.70
2022-10-29T09:57:31.533Z,20.88
2022-10-29T10:00:01.332Z,17.65
2022-10-29T10:02:52.121Z,19.55
2022-10-29T10:05:28.985Z,21.42
2022-10-29T10:08:13.958Z,22.20
2022-10-29T10:10:56.060Z,18.90
2022-10-29T10:13:29.314Z,20.90
2022-10-29T10:15:59.621Z,17.67
2022-10-29T10:18:40.411Z,20.00
2022-10-29T10:21:15.491Z,22.33
2022-10-29T10:23:48.555Z,17.50
2022-10-29T10:26:45.176Z,23.52
2022-10-29T10:29:24.305Z,18.52
2022-10-29T10:32:14.982Z,18.08
2022-10-29T10:34:43.069Z,21.52
2022-10-29T10:37:10.511Z,19.88
2022-10-29T10:39:45.118Z,25.42
2022-10-29T10:42:32.563Z,17.27
2022-10-29T10:45:13.447Z,16.33
2022-10-29T10:47:51.075Z,21.98
2022-10-29T10:50:29.537Z,17.98
2022-10-29T10:53:07.314Z,20.13
2022-10-29T10:55:39.495Z,19.20
2022-10-29T10:58:34.734Z,20.23
2022-10-29T11:01:15.386Z,19.23
2022-10-29T11:03:50.350Z,18.25
2022-10-29T11:06:20.624Z,18.25
2022-10-29T11:08:57.713Z,16.15
2022-10-29T11:11:32.649Z,20.35
2022-10-29T11:14:06.412Z,14.93
2022-10-29T11:16:39.039Z,15.38
2022-10-29T11:19:13.868Z,15.25
2022-10-29T11:21:55.585Z,22.23
2022-10-29T11:24:31.142Z,15.57
2022-10-29T11:27:41.281Z,17.02
2022-10-29T11:30:17.644Z,14.13
2022-10-29T11:35:57.508Z,14.27
2022-10-29T11:38:37.828Z,14.18
2022-10-29T11:41:17.874Z,14.23
2022-10-29T11:43:48.051Z,14.25
2022-10-29T11:46:46.518Z,15.13
2022-10-29T11:49:40.599Z,14.68
2022-10-29T11:52:23.268Z,11.95
2022-10-29T11:55:09.469Z,12.52
2022-10-29T11:57:44.801Z,13.50
2022-10-29T12:00:21.870Z,15.75
2022-10-29T12:03:07.083Z,12.00
2022-10-29T12:05:59.742Z,16.02
2022-10-29T12:08:48.666Z,12.63
2022-10-29T12:11:28.013Z,14.10
2022-10-29T12:14:30.242Z,12.55
2022-10-29T12:17:03.000Z,13.60
2022-10-29T12:19:48.654Z,18.75
2022-10-29T12:22:27.634Z,12.77
2022-10-29T12:25:15.567Z,13.13
2022-10-29T12:28:06.499Z,13.25
2022-10-29T12:30:43.221Z,12.70
2022-10-29T12:33:27.796Z,13.55
2022-10-29T12:38:38.131Z,14.00
2022-10-29T12:41:21.299Z,11.30
2022-10-29T12:43:49.691Z,16.20
2022-10-29T12:46:22.927Z,13.98
2022-10-29T12:49:12.767Z,13.25
2022-10-29T12:51:50.748Z,14.10
2022-10-29T12:54:27.589Z,12.07
2022-10-29T12:56:56.894Z,12.32
2022-10-29T12:59:24.232Z,13.10
2022-10-29T13:05:20.817Z,13.15
2022-10-29T13:07:48.381Z,14.68
2022-10-29T13:10:29.820Z,13.10
2022-10-29T13:13:02.087Z,12.60
2022-10-29T13:18:31.970Z,12.73
2022-10-29T13:20:59.544Z,12.57
2022-10-29T13:23:29.395Z,11.45
2022-10-29T13:25:58.990Z,9.98
2022-10-29T13:28:26.497Z,10.02
2022-10-29T13:31:14.022Z,9.75
2022-10-29T13:33:41.542Z,13.02
2022-10-29T13:36:19.210Z,10.57
2022-10-29T13:39:05.954Z,11.70
2022-10-29T13:41:43.782Z,10.70
2022-10-29T13:44:19.913Z,10.60
2022-10-29T13:46:54.550Z,13.43
2022-10-29T13:49:38.637Z,11.43
2022-10-29T13:52:14.122Z,11.18
2022-10-29T13:54:47.719Z,9.27
2022-10-29T13:57:35.538Z,14.15
2022-10-29T14:00:18.365Z,11.63
2022-10-29T14:03:04.698Z,16.25
2022-10-29T14:05:47.497Z,16.23
2022-10-29T14:08:20.675Z,17.95
2022-10-29T14:10:50.874Z,17.75
2022-10-29T14:13:31.182Z,14.82
2022-10-29T14:16:07.512Z,17.77
2022-10-29T14:18:45.842Z,16.08
2022-10-29T14:21:31.056Z,13.95
2022-10-29T14:24:02.212Z,13.63
2022-10-29T14:26:32.527Z,19.15
2022-10-29T14:29:24.031Z,13.00
2022-10-29T14:32:12.300Z,16.48
2022-10-29T14:34:45.469Z,12.02
2022-10-29T14:37:24.095Z,14.50
2022-10-29T14:39:58.457Z,12.18
2022-10-29T14:42:34.731Z,15.20
2022-10-29T14:45:16.721Z,12.60
2022-10-29T14:47:59.222Z,14.30
2022-10-29T14:50:28.870Z,13.80
2022-10-29T14:53:33.587Z,12.05
2022-10-29T14:56:10.164Z,10.55
2022-10-29T14:58:38.412Z,16.13
2022-10-29T15:01:14.807Z,13.40
2022-10-29T15:03:42.713Z,10.43
2022-10-29T15:06:25.676Z,15.27
2022-10-29T15:09:04.064Z,11.07
2022-10-29T15:11:47.915Z,14.35
2022-10-29T15:14:38.998Z,14.02
2022-10-29T15:17:18.713Z,12.80
2022-10-29T15:19:47.322Z,11.82
2022-10-29T15:22:33.166Z,16.88
2022-10-29T15:25:03.466Z,11.25
2022-10-29T15:27:31.095Z,13.27
2022-10-29T15:29:58.791Z,13.30
2022-10-29T15:32:30.580Z,13.48
2022-10-29T15:35:00.007Z,11.85
2022-10-29T15:37:42.335Z,12.88
2022-10-29T15:40:21.737Z,12.57
2022-10-29T15:42:49.780Z,12.48
2022-10-29T15:45:21.361Z,15.90
2022-10-29T15:47:55.469Z,14.23
2022-10-29T15:50:26.736Z,11.57
2022-10-29T15:53:06.058Z,11.63
2022-10-29T15:55:36.307Z,11.68
2022-10-29T15:58:07.393Z,14.50
2022-10-29T16:00:35.020Z,14.18
2022-10-29T16:03:17.520Z,15.82
2022-10-29T16:08:28.927Z,17.45
2022-10-29T16:10:57.882Z,17.50
2022-10-29T16:13:27.151Z,17.15
2022-10-29T16:15:55.151Z,15.60
2022-10-29T16:18:22.887Z,20.00
2022-10-29T16:20:53.774Z,19.42
2022-10-29T16:23:21.270Z,17.48
2022-10-29T16:25:48.856Z,14.35
2022-10-29T16:28:16.404Z,16.60
2022-10-29T16:30:48.547Z,19.13
2022-10-29T16:33:16.490Z,13.02
2022-10-29T16:35:43.988Z,16.40
2022-10-29T16:38:12.815Z,18.77
2022-10-29T16:40:42.846Z,10.90
2022-10-29T16:43:10.937Z,16.38
2022-10-29T16:45:38.937Z,17.42
2022-10-29T16:48:06.846Z,17.90
2022-10-29T16:50:35.094Z,16.83
2022-10-29T16:53:06.986Z,15.77
2022-10-29T16:55:37.212Z,14.88
2022-10-29T16:58:07.512Z,16.65
2022-10-29T17:00:36.938Z,16.10
2022-10-29T17:03:08.340Z,13.25
2022-10-29T17:05:41.146Z,12.70
2022-10-29T17:08:08.808Z,18.08
2022-10-29T17:10:37.572Z,15.20
2022-10-29T17:13:07.400Z,12.25
2022-10-29T17:15:35.067Z,13.43
2022-10-29T17:18:02.768Z,16.60
2022-10-29T17:20:30.492Z,15.38
2022-10-29T17:22:58.001Z,14.68
2022-10-29T17:25:25.704Z,16.02
2022-10-29T17:27:53.120Z,12.10
2022-10-29T17:30:20.669Z,15.07
2022-10-29T17:32:48.113Z,19.02
2022-10-29T17:35:18.021Z,16.25
2022-10-29T17:37:51.667Z,16.60
2022-10-29T17:40:19.199Z,18.83
2022-10-29T17:42:46.853Z,14.60
2022-10-29T17:45:20.637Z,20.95
2022-10-29T17:47:48.144Z,16.45
2022-10-29T17:50:15.640Z,15.57
2022-10-29T17:52:43.564Z,13.40
2022-10-29T17:55:12.586Z,16.65
2022-10-29T17:57:40.198Z,17.42
2022-10-29T18:00:08.537Z,17.42
2022-10-29T18:02:37.714Z,17.23
2022-10-29T18:05:05.531Z,16.88
2022-10-29T18:07:33.120Z,18.25
2022-10-29T18:10:02.397Z,19.08
2022-10-29T18:12:29.961Z,14.02
2022-10-29T18:14:58.391Z,18.52
2022-10-29T18:17:26.838Z,17.13
2022-10-29T18:19:54.271Z,15.65
2022-10-29T18:22:22.446Z,19.45
2022-10-29T18:24:50.144Z,17.45
2022-10-29T18:27:18.364Z,15.75
2022-10-29T18:29:49.258Z,18.05
2022-10-29T18:32:16.992Z,17.15
2022-10-29T18:34:46.247Z,15.82
2022-10-29T18:37:16.242Z,20.55
2022-10-29T18:39:44.788Z,17.10
2022-10-29T18:42:13.592Z,17.83
2022-10-29T18:44:41.321Z,13.77
2022-10-29T18:47:08.822Z,16.35
2022-10-29T18:49:36.245Z,13.00
2022-10-29T18:52:03.792Z,15.50
2022-10-29T18:54:31.378Z,15.65
2022-10-29T18:56:59.015Z,13.57
2022-10-29T18:59:26.611Z,16.67
2022-10-29T19:01:55.597Z,12.68
2022-10-29T19:04:24.814Z,15.93
2022-10-29T19:06:55.680Z,14.02
2022-10-29T19:09:23.460Z,14.10
2022-10-29T19:11:55.321Z,16.33
2022-10-29T19:14:28.131Z,17.08
2022-10-29T19:16:56.816Z,20.17
2022-10-29T19:19:24.622Z,14.68
2022-10-29T19:21:54.519Z,14.48
2022-10-29T19:24:22.209Z,17.65
2022-10-29T19:26:51.285Z,14.30
2022-10-29T19:29:21.008Z,19.23
2022-10-29T19:31:49.888Z,12.80
2022-10-29T19:34:17.651Z,17.73
2022-10-29T19:36:45.207Z,17.45
2022-10-29T19:39:13.082Z,13.38
2022-10-29T19:41:41.525Z,16.67
2022-10-29T19:44:09.488Z,13.45
2022-10-29T19:46:41.157Z,14.70
2022-10-29T19:49:09.794Z,14.18
2022-10-29T19:51:38.446Z,14.25
2022-10-29T19:54:07.418Z,12.25
2022-10-29T19:56:35.098Z,12.70
2022-10-29T19:59:05.111Z,17.10
2022-10-29T20:01:37.023Z,18.60
2022-10-29T20:04:04.889Z,14.02
2022-10-29T20:06:32.484Z,13.82
2022-10-29T20:08:59.937Z,13.02
2022-10-29T20:11:27.318Z,13.57
2022-10-29T20:13:54.791Z,13.05
2022-10-29T20:16:23.005Z,13.82
2022-10-29T20:18:51.218Z,11.73
2022-10-29T20:21:18.866Z,11.85
2022-10-29T20:23:46.569Z,15.38
2022-10-29T20:26:14.245Z,14.43
2022-10-29T20:28:41.894Z,10.50
2022-10-29T20:31:23.838Z,15.57
2022-10-29T20:33:53.225Z,12.80
2022-10-29T20:36:21.597Z,15.00
2022-10-29T20:38:50.406Z,14.05
2022-10-29T20:41:18.731Z,11.75
2022-10-29T20:43:46.705Z,11.20
2022-10-29T20:46:14.117Z,13.85
2022-10-29T20:48:41.601Z,12.88
2022-10-29T20:51:09.142Z,12.93
2022-10-29T20:53:36.601Z,14.55
2022-10-29T20:56:04.334Z,13.15
2022-10-29T20:58:31.883Z,14.40
2022-10-29T21:01:10.159Z,11.70
2022-10-29T21:03:37.827Z,13.77
2022-10-29T21:06:12.505Z,12.52
2022-10-29T21:08:45.158Z,13.93
2022-10-29T21:11:14.686Z,14.40
2022-10-29T21:13:42.297Z,12.88
2022-10-29T21:16:18.670Z,12.85
2022-10-29T21:18:48.703Z,12.43
2022-10-29T21:21:17.539Z,14.38
2022-10-29T21:23:45.555Z,15.80
2022-10-29T21:26:19.063Z,13.38
2022-10-29T21:28:47.759Z,12.98
2022-10-29T21:31:15.403Z,11.95
2022-10-29T21:33:42.962Z,10.82
2022-10-29T21:36:14.330Z,14.57
2022-10-29T21:38:42.020Z,14.85
2022-10-29T21:41:09.595Z,13.52
2022-10-29T21:43:38.395Z,16.67
2022-10-29T21:46:09.385Z,13.20
2022-10-29T21:48:37.167Z,13.65
2022-10-29T21:51:05.975Z,14.90
2022-10-29T21:53:34.115Z,11.50
2022-10-29T21:56:04.763Z,12.25
2022-10-29T21:58:32.869Z,12.10
2022-10-29T22:01:07.914Z,13.75
2022-10-29T22:03:37.400Z,13.85
2022-10-29T22:06:11.917Z,13.82
2022-10-29T22:08:40.115Z,18.60
2022-10-29T22:11:08.229Z,13.55
2022-10-29T22:13:36.288Z,12.15
2022-10-29T22:16:05.590Z,13.70
2022-10-29T22:18:33.825Z,13.55
2022-10-29T22:21:09.109Z,14.02
2022-10-29T22:23:38.401Z,11.95
2022-10-29T22:26:07.470Z,12.43
2022-10-29T22:28:35.006Z,20.27
2022-10-29T22:31:04.115Z,13.48
2022-10-29T22:33:34.126Z,13.75
2022-10-29T22:36:16.407Z,16.15
2022-10-29T22:38:44.530Z,14.43
2022-10-29T22:41:15.244Z,14.48
2022-10-29T22:43:43.840Z,11.52
2022-10-29T22:46:14.018Z,11.52
2022-10-29T22:48:41.529Z,13.70
2022-10-29T22:51:13.257Z,11.77
2022-10-29T22:53:41.068Z,15.27
2022-10-29T22:56:13.078Z,11.93
2022-10-29T22:58:40.554Z,10.10
2022-10-29T23:01:19.498Z,14.43
2022-10-29T23:03:47.552Z,13.13
2022-10-29T23:06:17.662Z,12.23
2022-10-29T23:08:45.757Z,14.55
2022-10-29T23:11:21.401Z,10.82
2022-10-29T23:13:57.163Z,10.95
2022-10-29T23:16:26.301Z,17.50
2022-10-29T23:18:56.374Z,11.75
2022-10-29T23:21:24.430Z,13.55
2022-10-29T23:23:52.941Z,12.52
2022-10-29T23:26:21.818Z,12.02
2022-10-29T23:28:50.167Z,12.27
2022-10-29T23:31:23.234Z,13.73
2022-10-29T23:33:53.100Z,16.50
2022-10-29T23:36:23.854Z,11.57
2022-10-29T23:39:01.612Z,11.48
2022-10-29T23:41:30.698Z,9.50
2022-10-29T23:43:58.616Z,10.90
2022-10-29T23:46:26.101Z,14.77
2022-10-29T23:48:53.690Z,13.23
2022-10-29T23:51:21.121Z,15.32
2022-10-29T23:53:51.600Z,10.57
2022-10-29T23:56:22.312Z,13.60
2022-10-29T23:58:49.782Z,13.50
